sensor_id;sensor_type;location;lat;lon;timestamp;pressure;altitude;pressure_sealevel;temperature;humidity
44531;BME280;30240;47.418;0.700;2023-08-06T00:00:05;100351.20849609375;;;15.82;75.45
44531;BME280;30240;47.418;0.700;2023-08-06T00:02:30;100353.04565429688;;;15.85;75.31
44531;BME280;30240;47.418;0.700;2023-08-06T00:04:54;100353.04565429688;;;15.85;75.31
44531;BME280;30240;47.418;0.700;2023-08-06T00:07:19;100345.08056640625;;;15.75;75.66
44531;BME280;30240;47.418;0.700;2023-08-06T00:09:44;100349.29809570312;;;15.78;75.73
44531;BME280;30240;47.418;0.700;2023-08-06T00:12:08;100349.18212890625;;;15.77;76.0
44531;BME280;30240;47.418;0.700;2023-08-06T00:14:33;100350.97045898438;;;15.74;76.28
44531;BME280;30240;47.418;0.700;2023-08-06T00:16:59;100350.97045898438;;;15.74;76.28
44531;BME280;30240;47.418;0.700;2023-08-06T00:19:24;100347.6806640625;;;15.71;76.38
44531;BME280;30240;47.418;0.700;2023-08-06T00:21:48;100365.673828125;;;15.6;76.69
44531;BME280;30240;47.418;0.700;2023-08-06T00:24:14;100351.56860351562;;;15.62;77.1
44531;BME280;30240;47.418;0.700;2023-08-06T00:26:38;100353.99780273438;;;15.57;77.18
44531;BME280;30240;47.418;0.700;2023-08-06T00:29:04;100353.99780273438;;;15.57;77.18
44531;BME280;30240;47.418;0.700;2023-08-06T00:31:28;100354.07104492188;;;15.58;77.34
44531;BME280;30240;47.418;0.700;2023-08-06T00:33:54;100358.29467773438;;;15.57;77.4
44531;BME280;30240;47.418;0.700;2023-08-06T00:36:19;100364.2333984375;;;15.57;77.48
44531;BME280;30240;47.418;0.700;2023-08-06T00:38:43;100367.5537109375;;;15.57;77.64
44531;BME280;30240;47.418;0.700;2023-08-06T00:41:09;100367.5537109375;;;15.57;77.64
44531;BME280;30240;47.418;0.700;2023-08-06T00:43:34;100372.18627929688;;;15.58;77.79
44531;BME280;30240;47.418;0.700;2023-08-06T00:46:00;100368.64013671875;;;15.55;77.87
44531;BME280;30240;47.418;0.700;2023-08-06T00:48:24;100367.04711914062;;;15.57;78.04
44531;BME280;30240;47.418;0.700;2023-08-06T00:50:48;100382.5439453125;;;15.5;78.1
44531;BME280;30240;47.418;0.700;2023-08-06T00:53:14;100382.5439453125;;;15.5;78.1
44531;BME280;30240;47.418;0.700;2023-08-06T00:55:39;100369.94018554688;;;15.49;78.26
44531;BME280;30240;47.418;0.700;2023-08-06T00:58:04;100364.43481445312;;;15.44;78.35
44531;BME280;30240;47.418;0.700;2023-08-06T01:00:29;100374.66430664062;;;15.42;78.53
44531;BME280;30240;47.418;0.700;2023-08-06T01:02:54;100379.9072265625;;;15.37;78.73
44531;BME280;30240;47.418;0.700;2023-08-06T01:05:19;100379.9072265625;;;15.37;78.73
44531;BME280;30240;47.418;0.700;2023-08-06T01:07:51;100389.6728515625;;;15.33;78.76
44531;BME280;30240;47.418;0.700;2023-08-06T01:07:59;100389.6728515625;;;15.33;78.76
44531;BME280;30240;47.418;0.700;2023-08-06T01:08:06;100389.6728515625;;;15.33;78.76
44531;BME280;30240;47.418;0.700;2023-08-06T01:08:13;100389.6728515625;;;15.33;78.76
44531;BME280;30240;47.418;0.700;2023-08-06T01:10:23;100396.11206054688;;;15.33;78.84
44531;BME280;30240;47.418;0.700;2023-08-06T01:12:38;100396.14868164062;;;15.32;78.98
44531;BME280;30240;47.418;0.700;2023-08-06T01:12:45;100396.14868164062;;;15.32;78.98
44531;BME280;30240;47.418;0.700;2023-08-06T01:15:07;100387.46948242188;;;15.23;79.25
44531;BME280;30240;47.418;0.700;2023-08-06T01:17:24;100387.46948242188;;;15.23;79.25
44531;BME280;30240;47.418;0.700;2023-08-06T01:19:48;100396.54541015625;;;15.18;79.53
44531;BME280;30240;47.418;0.700;2023-08-06T01:22:14;100404.77294921875;;;15.16;79.66
44531;BME280;30240;47.418;0.700;2023-08-06T01:24:40;100413.25073242188;;;15.13;79.75
44531;BME280;30240;47.418;0.700;2023-08-06T01:27:07;100415.03295898438;;;15.15;79.89
44531;BME280;30240;47.418;0.700;2023-08-06T01:29:33;100415.03295898438;;;15.15;79.89
44531;BME280;30240;47.418;0.700;2023-08-06T01:31:55;100413.22631835938;;;15.06;80.08
44531;BME280;30240;47.418;0.700;2023-08-06T01:34:21;100411.74926757812;;;15.05;80.27
44531;BME280;30240;47.418;0.700;2023-08-06T01:36:44;100429.15649414062;;;14.94;80.5
44531;BME280;30240;47.418;0.700;2023-08-06T01:39:09;100421.96655273438;;;14.94;80.69
44531;BME280;30240;47.418;0.700;2023-08-06T01:41:34;100426.84936523438;;;14.87;80.88
44531;BME280;30240;47.418;0.700;2023-08-06T01:43:59;100426.84936523438;;;14.87;80.88
44531;BME280;30240;47.418;0.700;2023-08-06T01:46:24;100426.98364257812;;;14.85;81.06
44531;BME280;30240;47.418;0.700;2023-08-06T01:48:48;100425.70190429688;;;14.8;81.26
44531;BME280;30240;47.418;0.700;2023-08-06T01:51:13;100428.53393554688;;;14.73;81.37
44531;BME280;30240;47.418;0.700;2023-08-06T01:53:39;100431.25;;;14.66;81.63
44531;BME280;30240;47.418;0.700;2023-08-06T01:56:04;100431.25;;;14.66;81.63
44531;BME280;30240;47.418;0.700;2023-08-06T01:58:28;100436.96899414062;;;14.66;81.79
44531;BME280;30240;47.418;0.700;2023-08-06T02:00:54;100448.2666015625;;;14.63;81.94
44531;BME280;30240;47.418;0.700;2023-08-06T02:03:18;100446.7041015625;;;14.53;82.19
44531;BME280;30240;47.418;0.700;2023-08-06T02:05:44;100457.33642578125;;;14.59;82.06
44531;BME280;30240;47.418;0.700;2023-08-06T02:08:08;100457.33642578125;;;14.59;82.06
44531;BME280;30240;47.418;0.700;2023-08-06T02:10:34;100451.23291015625;;;14.57;82.05
44531;BME280;30240;47.418;0.700;2023-08-06T02:12:59;100456.48193359375;;;14.56;82.21
44531;BME280;30240;47.418;0.700;2023-08-06T02:15:24;100457.4462890625;;;14.56;82.11
44531;BME280;30240;47.418;0.700;2023-08-06T02:17:49;100455.76782226562;;;14.61;82.06
44531;BME280;30240;47.418;0.700;2023-08-06T02:20:14;100455.76782226562;;;14.61;82.06
44531;BME280;30240;47.418;0.700;2023-08-06T02:22:39;100458.45947265625;;;14.63;82.17
44531;BME280;30240;47.418;0.700;2023-08-06T02:25:04;100456.62231445312;;;14.61;82.11
44531;BME280;30240;47.418;0.700;2023-08-06T02:27:29;100467.90771484375;;;14.63;82.13
44531;BME280;30240;47.418;0.700;2023-08-06T02:29:54;100460.84594726562;;;14.44;82.47
44531;BME280;30240;47.418;0.700;2023-08-06T02:32:18;100460.84594726562;;;14.44;82.47
44531;BME280;30240;47.418;0.700;2023-08-06T02:34:43;100469.21997070312;;;14.4;82.5
44531;BME280;30240;47.418;0.700;2023-08-06T02:37:09;100470.7275390625;;;14.4;82.51
44531;BME280;30240;47.418;0.700;2023-08-06T02:39:36;100474.74975585938;;;14.36;82.62
44531;BME280;30240;47.418;0.700;2023-08-06T02:42:02;100479.82788085938;;;14.32;82.74
44531;BME280;30240;47.418;0.700;2023-08-06T02:44:26;100479.82788085938;;;14.32;82.74
44531;BME280;30240;47.418;0.700;2023-08-06T02:46:49;100480.96313476562;;;14.24;82.85
44531;BME280;30240;47.418;0.700;2023-08-06T02:49:15;100479.84619140625;;;14.25;83.02
44531;BME280;30240;47.418;0.700;2023-08-06T02:51:39;100474.4873046875;;;14.28;82.89
44531;BME280;30240;47.418;0.700;2023-08-06T02:54:09;100474.81079101562;;;14.25;82.9
44531;BME280;30240;47.418;0.700;2023-08-06T02:56:29;100474.81079101562;;;14.25;82.9
44531;BME280;30240;47.418;0.700;2023-08-06T02:58:54;100473.583984375;;;14.21;82.92
44531;BME280;30240;47.418;0.700;2023-08-06T03:01:18;100473.54736328125;;;14.25;82.85
44531;BME280;30240;47.418;0.700;2023-08-06T03:03:44;100479.8095703125;;;14.22;82.98
44531;BME280;30240;47.418;0.700;2023-08-06T03:06:09;100480.71899414062;;;14.25;82.96
44531;BME280;30240;47.418;0.700;2023-08-06T03:08:34;100479.74853515625;;;14.24;82.96
44531;BME280;30240;47.418;0.700;2023-08-06T03:10:58;100479.74853515625;;;14.24;82.96
44531;BME280;30240;47.418;0.700;2023-08-06T03:13:24;100489.54467773438;;;14.19;83.02
44531;BME280;30240;47.418;0.700;2023-08-06T03:15:52;100492.48657226562;;;14.17;83.11
44531;BME280;30240;47.418;0.700;2023-08-06T03:18:14;100493.1396484375;;;14.19;82.98
44531;BME280;30240;47.418;0.700;2023-08-06T03:20:39;100494.39697265625;;;14.11;81.91
44531;BME280;30240;47.418;0.700;2023-08-06T03:23:04;100494.39697265625;;;14.11;81.91
44531;BME280;30240;47.418;0.700;2023-08-06T03:25:29;100490.59448242188;;;14.22;81.58
44531;BME280;30240;47.418;0.700;2023-08-06T03:27:54;100493.98193359375;;;14.18;81.54
44531;BME280;30240;47.418;0.700;2023-08-06T03:30:19;100496.50268554688;;;14.24;81.56
44531;BME280;30240;47.418;0.700;2023-08-06T03:32:44;100493.8232421875;;;14.24;81.64
44531;BME280;30240;47.418;0.700;2023-08-06T03:35:09;100493.8232421875;;;14.24;81.64
44531;BME280;30240;47.418;0.700;2023-08-06T03:37:34;100493.84155273438;;;14.22;81.63
44531;BME280;30240;47.418;0.700;2023-08-06T03:39:59;100499.7314453125;;;14.18;81.8
44531;BME280;30240;47.418;0.700;2023-08-06T03:42:24;100502.001953125;;;14.25;81.83
44531;BME280;30240;47.418;0.700;2023-08-06T03:44:55;100507.02514648438;;;14.22;81.91
44531;BME280;30240;47.418;0.700;2023-08-06T03:49:46;100507.421875;;;14.12;82.07
44531;BME280;30240;47.418;0.700;2023-08-06T03:52:04;100500.87280273438;;;14.02;82.24
44531;BME280;30240;47.418;0.700;2023-08-06T03:54:29;100506.82983398438;;;14.07;82.2
44531;BME280;30240;47.418;0.700;2023-08-06T03:56:54;100508.67309570312;;;13.97;82.25
44531;BME280;30240;47.418;0.700;2023-08-06T03:59:19;100508.67309570312;;;13.97;82.25
44531;BME280;30240;47.418;0.700;2023-08-06T04:01:44;100519.3603515625;;;13.95;82.3
44531;BME280;30240;47.418;0.700;2023-08-06T04:04:18;100519.6533203125;;;13.93;82.35
44531;BME280;30240;47.418;0.700;2023-08-06T04:06:40;100525.38452148438;;;13.85;82.36
44531;BME280;30240;47.418;0.700;2023-08-06T04:09:01;100523.06518554688;;;13.78;82.51
44531;BME280;30240;47.418;0.700;2023-08-06T04:11:24;100523.06518554688;;;13.78;82.51
44531;BME280;30240;47.418;0.700;2023-08-06T04:13:56;100535.9130859375;;;13.84;82.51
44531;BME280;30240;47.418;0.700;2023-08-06T04:16:17;100539.0625;;;13.71;82.66
44531;BME280;30240;47.418;0.700;2023-08-06T04:18:41;100544.384765625;;;13.73;82.73
44531;BME280;30240;47.418;0.700;2023-08-06T04:21:05;100544.53125;;;13.71;82.72
44531;BME280;30240;47.418;0.700;2023-08-06T04:23:36;100541.20483398438;;;13.67;82.69
44531;BME280;30240;47.418;0.700;2023-08-06T04:25:56;100541.20483398438;;;13.67;82.69
44531;BME280;30240;47.418;0.700;2023-08-06T04:28:19;100541.32690429688;;;13.67;82.76
44531;BME280;30240;47.418;0.700;2023-08-06T04:30:43;100552.5634765625;;;13.62;82.73
44531;BME280;30240;47.418;0.700;2023-08-06T04:33:09;100558.73413085938;;;13.65;82.89
44531;BME280;30240;47.418;0.700;2023-08-06T04:35:34;100558.73413085938;;;13.65;82.89
44531;BME280;30240;47.418;0.700;2023-08-06T04:37:58;100557.40356445312;;;13.53;83.0
44531;BME280;30240;47.418;0.700;2023-08-06T04:40:24;100560.02197265625;;;13.52;83.12
44531;BME280;30240;47.418;0.700;2023-08-06T04:42:49;100560.56518554688;;;13.48;83.14
44531;BME280;30240;47.418;0.700;2023-08-06T04:45:14;100572.265625;;;13.45;83.27
44531;BME280;30240;47.418;0.700;2023-08-06T04:47:38;100573.07739257812;;;13.41;83.36
44531;BME280;30240;47.418;0.700;2023-08-06T04:50:04;100573.07739257812;;;13.41;83.36
44531;BME280;30240;47.418;0.700;2023-08-06T04:52:29;100580.74951171875;;;13.38;83.44
44531;BME280;30240;47.418;0.700;2023-08-06T04:54:54;100579.52880859375;;;13.36;83.49
44531;BME280;30240;47.418;0.700;2023-08-06T04:57:19;100580.10864257812;;;13.35;83.52
44531;BME280;30240;47.418;0.700;2023-08-06T04:59:43;100581.73217773438;;;13.34;83.58
44531;BME280;30240;47.418;0.700;2023-08-06T05:02:09;100581.73217773438;;;13.34;83.58
44531;BME280;30240;47.418;0.700;2023-08-06T05:04:34;100580.86547851562;;;13.31;83.58
44531;BME280;30240;47.418;0.700;2023-08-06T05:06:59;100580.71899414062;;;13.35;83.55
44531;BME280;30240;47.418;0.700;2023-08-06T05:09:24;100586.46850585938;;;13.21;83.81
44531;BME280;30240;47.418;0.700;2023-08-06T05:11:49;100590.04516601562;;;13.12;83.99
44531;BME280;30240;47.418;0.700;2023-08-06T05:14:14;100590.04516601562;;;13.12;83.99
44531;BME280;30240;47.418;0.700;2023-08-06T05:16:39;100594.11010742188;;;13.19;83.84
44531;BME280;30240;47.418;0.700;2023-08-06T05:19:04;100591.064453125;;;13.22;83.84
44531;BME280;30240;47.418;0.700;2023-08-06T05:21:29;100602.64892578125;;;13.24;83.67
44531;BME280;30240;47.418;0.700;2023-08-06T05:23:54;100607.31811523438;;;13.31;83.63
44531;BME280;30240;47.418;0.700;2023-08-06T05:26:18;100607.31811523438;;;13.31;83.63
44531;BME280;30240;47.418;0.700;2023-08-06T05:28:44;100605.5908203125;;;13.25;83.74
44531;BME280;30240;47.418;0.700;2023-08-06T05:31:09;100615.43579101562;;;13.29;83.81
44531;BME280;30240;47.418;0.700;2023-08-06T05:33:33;100622.18017578125;;;13.29;83.63
44531;BME280;30240;47.418;0.700;2023-08-06T05:35:59;100619.47021484375;;;13.29;83.82
44531;BME280;30240;47.418;0.700;2023-08-06T05:38:24;100619.47021484375;;;13.29;83.82
44531;BME280;30240;47.418;0.700;2023-08-06T05:40:49;100637.90893554688;;;13.31;83.67
44531;BME280;30240;47.418;0.700;2023-08-06T05:43:16;100637.3779296875;;;13.32;83.81
44531;BME280;30240;47.418;0.700;2023-08-06T05:45:39;100631.35986328125;;;13.34;83.69
44531;BME280;30240;47.418;0.700;2023-08-06T05:48:04;100636.4501953125;;;13.34;83.83
44531;BME280;30240;47.418;0.700;2023-08-06T05:50:28;100636.4501953125;;;13.34;83.83
44531;BME280;30240;47.418;0.700;2023-08-06T05:52:54;100643.05419921875;;;13.36;83.75
44531;BME280;30240;47.418;0.700;2023-08-06T05:55:20;100640.05737304688;;;13.39;83.69
44531;BME280;30240;47.418;0.700;2023-08-06T05:57:47;100645.79467773438;;;13.41;83.65
44531;BME280;30240;47.418;0.700;2023-08-06T06:00:09;100650.54931640625;;;13.41;83.65
44531;BME280;30240;47.418;0.700;2023-08-06T06:02:34;100650.54931640625;;;13.41;83.65
44531;BME280;30240;47.418;0.700;2023-08-06T06:04:58;100646.40502929688;;;13.53;83.32
44531;BME280;30240;47.418;0.700;2023-08-06T06:07:24;100652.42919921875;;;13.43;83.6
44531;BME280;30240;47.418;0.700;2023-08-06T06:09:48;100654.6875;;;13.48;83.52
44531;BME280;30240;47.418;0.700;2023-08-06T06:12:13;100656.28051757812;;;13.42;83.59
44531;BME280;30240;47.418;0.700;2023-08-06T06:14:39;100668.017578125;;;13.62;83.42
44531;BME280;30240;47.418;0.700;2023-08-06T06:17:03;100668.017578125;;;13.62;83.42
44531;BME280;30240;47.418;0.700;2023-08-06T06:19:29;100670.01342773438;;;13.62;83.48
44531;BME280;30240;47.418;0.700;2023-08-06T06:21:53;100666.68701171875;;;13.52;83.72
44531;BME280;30240;47.418;0.700;2023-08-06T06:24:19;100672.7783203125;;;13.65;83.43
44531;BME280;30240;47.418;0.700;2023-08-06T06:26:43;100677.15454101562;;;13.63;83.33
44531;BME280;30240;47.418;0.700;2023-08-06T06:29:09;100677.15454101562;;;13.63;83.33
44531;BME280;30240;47.418;0.700;2023-08-06T06:31:34;100674.755859375;;;13.63;83.35
44531;BME280;30240;47.418;0.700;2023-08-06T06:34:05;100676.8310546875;;;13.71;83.18
44531;BME280;30240;47.418;0.700;2023-08-06T06:36:26;100683.5693359375;;;13.94;82.93
44531;BME280;30240;47.418;0.700;2023-08-06T06:38:57;100675.439453125;;;13.87;82.85
44531;BME280;30240;47.418;0.700;2023-08-06T06:41:19;100675.439453125;;;13.87;82.85
44531;BME280;30240;47.418;0.700;2023-08-06T06:43:47;100678.53393554688;;;13.95;83.05
44531;BME280;30240;47.418;0.700;2023-08-06T06:46:04;100668.92700195312;;;14.07;82.62
44531;BME280;30240;47.418;0.700;2023-08-06T06:48:32;100675.07934570312;;;13.77;83.16
44531;BME280;30240;47.418;0.700;2023-08-06T06:50:54;100674.94506835938;;;14.02;82.79
44531;BME280;30240;47.418;0.700;2023-08-06T06:53:20;100674.94506835938;;;14.02;82.79
44531;BME280;30240;47.418;0.700;2023-08-06T06:55:44;100682.11669921875;;;14.42;82.03
44531;BME280;30240;47.418;0.700;2023-08-06T06:58:13;100688.17749023438;;;14.36;82.27
44531;BME280;30240;47.418;0.700;2023-08-06T07:00:35;100691.0400390625;;;14.6;81.84
44531;BME280;30240;47.418;0.700;2023-08-06T07:02:58;100691.2841796875;;;14.3;82.02
44531;BME280;30240;47.418;0.700;2023-08-06T07:05:23;100691.2841796875;;;14.3;82.02
44531;BME280;30240;47.418;0.700;2023-08-06T07:07:48;100694.5556640625;;;14.59;81.54
44531;BME280;30240;47.418;0.700;2023-08-06T07:10:14;100682.62329101562;;;14.56;81.9
44531;BME280;30240;47.418;0.700;2023-08-06T07:12:38;100689.75830078125;;;14.6;81.71
44531;BME280;30240;47.418;0.700;2023-08-06T07:15:06;100688.36669921875;;;14.63;81.95
44531;BME280;30240;47.418;0.700;2023-08-06T07:17:28;100688.36669921875;;;14.63;81.95
44531;BME280;30240;47.418;0.700;2023-08-06T07:19:54;100694.61059570312;;;14.84;81.6
44531;BME280;30240;47.418;0.700;2023-08-06T07:24:44;100706.89086914062;;;14.73;81.23
44531;BME280;30240;47.418;0.700;2023-08-06T07:27:08;100706.9091796875;;;14.91;81.4
44531;BME280;30240;47.418;0.700;2023-08-06T07:29:34;100706.9091796875;;;14.91;81.4
44531;BME280;30240;47.418;0.700;2023-08-06T07:31:58;100707.51342773438;;;15.33;80.88
44531;BME280;30240;47.418;0.700;2023-08-06T07:34:24;100699.05395507812;;;15.6;80.02
44531;BME280;30240;47.418;0.700;2023-08-06T07:36:49;100686.63940429688;;;15.29;80.58
44531;BME280;30240;47.418;0.700;2023-08-06T07:39:20;100694.11010742188;;;15.43;79.78
44531;BME280;30240;47.418;0.700;2023-08-06T07:41:46;100711.29760742188;;;15.49;79.85
44531;BME280;30240;47.418;0.700;2023-08-06T07:44:04;100711.29760742188;;;15.49;79.85
44531;BME280;30240;47.418;0.700;2023-08-06T07:46:28;100691.96166992188;;;15.3;80.18
44531;BME280;30240;47.418;0.700;2023-08-06T07:48:53;100699.81079101562;;;15.78;80.4
44531;BME280;30240;47.418;0.700;2023-08-06T07:51:19;100694.970703125;;;15.86;80.12
44531;BME280;30240;47.418;0.700;2023-08-06T07:53:45;100693.84155273438;;;16.68;77.51
44531;BME280;30240;47.418;0.700;2023-08-06T07:56:09;100693.84155273438;;;16.68;77.51
44531;BME280;30240;47.418;0.700;2023-08-06T07:58:33;100702.87475585938;;;15.54;79.89
44531;BME280;30240;47.418;0.700;2023-08-06T08:00:58;100700.1708984375;;;16.23;79.37
44531;BME280;30240;47.418;0.700;2023-08-06T08:03:23;100712.56103515625;;;16.4;77.31
44531;BME280;30240;47.418;0.700;2023-08-06T08:05:49;100697.29614257812;;;16.48;77.08
44531;BME280;30240;47.418;0.700;2023-08-06T08:08:13;100697.29614257812;;;16.48;77.08
44531;BME280;30240;47.418;0.700;2023-08-06T08:10:39;100701.36108398438;;;16.44;76.92
44531;BME280;30240;47.418;0.700;2023-08-06T08:13:04;100701.86157226562;;;16.52;76.18
44531;BME280;30240;47.418;0.700;2023-08-06T08:15:29;100691.15600585938;;;16.24;76.88
44531;BME280;30240;47.418;0.700;2023-08-06T08:17:55;100702.6123046875;;;17.56;74.1
44531;BME280;30240;47.418;0.700;2023-08-06T08:20:19;100702.6123046875;;;17.56;74.1
44531;BME280;30240;47.418;0.700;2023-08-06T08:22:44;100700.81176757812;;;17.75;72.81
44531;BME280;30240;47.418;0.700;2023-08-06T08:25:09;100691.87622070312;;;17.31;73.37
44531;BME280;30240;47.418;0.700;2023-08-06T08:27:33;100694.39697265625;;;17.04;73.15
44531;BME280;30240;47.418;0.700;2023-08-06T08:29:58;100696.11206054688;;;16.59;74.63
44531;BME280;30240;47.418;0.700;2023-08-06T08:32:23;100696.11206054688;;;16.59;74.63
44531;BME280;30240;47.418;0.700;2023-08-06T08:34:49;100704.57763671875;;;16.48;74.63
44531;BME280;30240;47.418;0.700;2023-08-06T08:37:14;100717.60864257812;;;16.57;73.5
44531;BME280;30240;47.418;0.700;2023-08-06T08:39:39;100704.68139648438;;;17.8;70.76
44531;BME280;30240;47.418;0.700;2023-08-06T08:42:06;100698.4130859375;;;18.1;69.27
44531;BME280;30240;47.418;0.700;2023-08-06T08:44:30;100698.4130859375;;;18.1;69.27
44531;BME280;30240;47.418;0.700;2023-08-06T08:46:54;100693.9697265625;;;17.1;70.91
44531;BME280;30240;47.418;0.700;2023-08-06T08:49:20;100699.69482421875;;;16.87;72.7
44531;BME280;30240;47.418;0.700;2023-08-06T08:51:45;100701.33056640625;;;18.0;69.09
44531;BME280;30240;47.418;0.700;2023-08-06T08:54:10;100703.74145507812;;;18.51;69.0
44531;BME280;30240;47.418;0.700;2023-08-06T08:56:34;100703.74145507812;;;18.51;69.0
44531;BME280;30240;47.418;0.700;2023-08-06T08:58:59;100703.63159179688;;;18.71;69.12
44531;BME280;30240;47.418;0.700;2023-08-06T09:01:24;100707.14111328125;;;19.71;67.02
44531;BME280;30240;47.418;0.700;2023-08-06T09:03:49;100724.53002929688;;;19.08;63.74
44531;BME280;30240;47.418;0.700;2023-08-06T09:06:15;100711.9140625;;;20.04;64.14
44531;BME280;30240;47.418;0.700;2023-08-06T09:08:41;100711.9140625;;;20.04;64.14
44531;BME280;30240;47.418;0.700;2023-08-06T09:11:05;100740.31372070312;;;17.31;69.67
44531;BME280;30240;47.418;0.700;2023-08-06T09:13:28;100718.8720703125;;;17.2;70.7
44531;BME280;30240;47.418;0.700;2023-08-06T09:15:53;100722.46704101562;;;17.3;69.75
44531;BME280;30240;47.418;0.700;2023-08-06T09:18:25;100715.234375;;;19.39;65.62
44531;BME280;30240;47.418;0.700;2023-08-06T09:20:44;100710.63842773438;;;19.74;64.86
44531;BME280;30240;47.418;0.700;2023-08-06T09:23:09;100710.63842773438;;;19.74;64.86
44531;BME280;30240;47.418;0.700;2023-08-06T09:25:37;100724.169921875;;;17.98;67.23
44531;BME280;30240;47.418;0.700;2023-08-06T09:27:59;100712.07885742188;;;18.18;68.14
44531;BME280;30240;47.418;0.700;2023-08-06T09:30:32;100732.9833984375;;;17.65;68.28
44531;BME280;30240;47.418;0.700;2023-08-06T09:32:49;100727.65502929688;;;19.28;65.69
44531;BME280;30240;47.418;0.700;2023-08-06T09:35:15;100727.65502929688;;;19.28;65.69
44531;BME280;30240;47.418;0.700;2023-08-06T09:37:39;100730.45043945312;;;19.05;63.51
44531;BME280;30240;47.418;0.700;2023-08-06T09:40:24;100736.55395507812;;;17.91;66.45
44531;BME280;30240;47.418;0.700;2023-08-06T09:42:29;100731.89086914062;;;18.51;66.43
44531;BME280;30240;47.418;0.700;2023-08-06T09:45:05;100728.88793945312;;;20.48;61.25
44531;BME280;30240;47.418;0.700;2023-08-06T09:45:05;100728.88793945312;;;20.48;61.25
44531;BME280;30240;47.418;0.700;2023-08-06T09:47:19;100728.88793945312;;;20.48;61.25
44531;BME280;30240;47.418;0.700;2023-08-06T09:49:43;100734.18579101562;;;18.71;65.11
44531;BME280;30240;47.418;0.700;2023-08-06T09:52:10;100741.51611328125;;;18.11;66.88
44531;BME280;30240;47.418;0.700;2023-08-06T09:54:35;100736.79809570312;;;17.66;68.25
44531;BME280;30240;47.418;0.700;2023-08-06T09:56:58;100747.0703125;;;17.93;68.07
44531;BME280;30240;47.418;0.700;2023-08-06T09:59:24;100747.0703125;;;17.93;68.07
44531;BME280;30240;47.418;0.700;2023-08-06T10:01:49;100736.09619140625;;;18.7;67.06
44531;BME280;30240;47.418;0.700;2023-08-06T10:04:15;100741.2353515625;;;19.56;63.83
44531;BME280;30240;47.418;0.700;2023-08-06T10:06:39;100754.01611328125;;;19.0;64.62
44531;BME280;30240;47.418;0.700;2023-08-06T10:09:04;100744.61059570312;;;18.62;65.83
44531;BME280;30240;47.418;0.700;2023-08-06T10:11:29;100744.61059570312;;;18.62;65.83
44531;BME280;30240;47.418;0.700;2023-08-06T10:13:57;100747.65625;;;18.31;66.81
44531;BME280;30240;47.418;0.700;2023-08-06T10:16:19;100744.37255859375;;;19.53;62.17
44531;BME280;30240;47.418;0.700;2023-08-06T10:18:44;100742.09594726562;;;19.81;62.75
44531;BME280;30240;47.418;0.700;2023-08-06T10:21:09;100742.7001953125;;;18.74;63.06
44531;BME280;30240;47.418;0.700;2023-08-06T10:23:35;100742.7001953125;;;18.74;63.06
44531;BME280;30240;47.418;0.700;2023-08-06T10:25:58;100757.90405273438;;;18.44;63.92
44531;BME280;30240;47.418;0.700;2023-08-06T10:28:34;100759.78393554688;;;18.62;65.18
44531;BME280;30240;47.418;0.700;2023-08-06T10:30:49;100756.26831054688;;;18.18;66.51
44531;BME280;30240;47.418;0.700;2023-08-06T10:33:14;100755.67016601562;;;18.46;66.03
44531;BME280;30240;47.418;0.700;2023-08-06T10:35:41;100755.67016601562;;;18.46;66.03
44531;BME280;30240;47.418;0.700;2023-08-06T10:38:07;100754.01000976562;;;20.94;61.03
44531;BME280;30240;47.418;0.700;2023-08-06T10:40:32;100750.4638671875;;;22.13;57.53
44531;BME280;30240;47.418;0.700;2023-08-06T10:42:54;100758.57543945312;;;19.57;59.73
44531;BME280;30240;47.418;0.700;2023-08-06T10:45:19;100741.60766601562;;;19.3;60.38
44531;BME280;30240;47.418;0.700;2023-08-06T10:47:44;100732.87353515625;;;21.02;58.43
44531;BME280;30240;47.418;0.700;2023-08-06T10:50:12;100732.87353515625;;;21.02;58.43
44531;BME280;30240;47.418;0.700;2023-08-06T10:52:34;100739.09301757812;;;21.19;55.55
44531;BME280;30240;47.418;0.700;2023-08-06T10:54:58;100739.78271484375;;;20.57;57.85
44531;BME280;30240;47.418;0.700;2023-08-06T10:57:23;100748.10791015625;;;19.52;62.59
44531;BME280;30240;47.418;0.700;2023-08-06T10:59:48;100762.88452148438;;;19.02;63.65
44531;BME280;30240;47.418;0.700;2023-08-06T11:02:13;100762.88452148438;;;19.02;63.65
44531;BME280;30240;47.418;0.700;2023-08-06T11:04:39;100771.75903320312;;;19.42;63.79
44531;BME280;30240;47.418;0.700;2023-08-06T11:07:06;100773.18725585938;;;18.8;64.52
44531;BME280;30240;47.418;0.700;2023-08-06T11:09:28;100758.11767578125;;;20.53;60.74
44531;BME280;30240;47.418;0.700;2023-08-06T11:11:53;100749.755859375;;;22.09;57.93
44531;BME280;30240;47.418;0.700;2023-08-06T11:14:18;100749.755859375;;;22.09;57.93